Time;durP1;ratioP1;P1;durP2;ratioP2;P2;SDS_P1;SDS_P2;PMS_P1;PMS_P2;Temp;Humidity;BMP_temperature;BMP_pressure;BME280_temperature;BME280_humidity;BME280_pressure;Samples;Min_cycle;Max_cycle;Signal;HPM_P1;HPM_P2
2021/07/23 00:00:10;;;;;;;4.40;3.30;;;;;;;17.16;68.70;101265.75;5033515;28;20200;-77
2021/07/23 00:02:38;;;;;;;4.53;3.83;;;;;;;17.14;69.50;101255.25;5033284;28;20208;-77
2021/07/23 00:05:05;;;;;;;3.40;3.10;;;;;;;17.10;68.86;101266.81;5033528;28;20216;-76
2021/07/23 00:07:31;;;;;;;3.50;3.20;;;;;;;17.05;69.45;101245.88;5033530;28;20227;-77
2021/07/23 00:09:58;;;;;;;4.17;3.87;;;;;;;17.03;69.07;101258.25;5033184;28;20209;-76
2021/07/23 00:12:24;;;;;;;3.60;3.40;;;;;;;16.85;69.57;101243.03;5032986;28;20211;-76
2021/07/23 00:14:50;;;;;;;4.73;3.60;;;;;;;16.80;69.69;101232.59;5033704;28;20206;-77
2021/07/23 00:17:17;;;;;;;3.90;3.40;;;;;;;16.82;69.68;101241.34;5034235;28;20227;-76
2021/07/23 00:19:45;;;;;;;4.20;3.80;;;;;;;16.81;70.83;101196.56;5036083;28;20230;-76
2021/07/23 00:22:11;;;;;;;4.13;3.73;;;;;;;16.77;70.66;101198.44;5032904;28;20370;-76
2021/07/23 00:24:37;;;;;;;4.17;3.80;;;;;;;16.74;70.24;101216.97;5032730;28;20212;-76
2021/07/23 00:27:04;;;;;;;3.80;3.50;;;;;;;16.68;70.61;101210.09;5032983;28;20240;-76
2021/07/23 00:29:30;;;;;;;4.50;4.00;;;;;;;16.68;71.08;101199.56;5024761;28;20223;-76
2021/07/23 00:31:57;;;;;;;4.73;4.37;;;;;;;16.69;71.72;101163.53;5032755;28;20212;-76
2021/07/23 00:34:23;;;;;;;4.20;3.97;;;;;;;16.66;72.96;101114.41;5032332;28;20237;-76
2021/07/23 00:36:51;;;;;;;5.07;4.67;;;;;;;16.61;72.59;101126.00;5032780;28;20288;-76
2021/07/23 00:39:17;;;;;;;4.83;4.43;;;;;;;16.57;72.28;101124.38;5032781;28;20204;-76
2021/07/23 00:41:44;;;;;;;4.63;4.23;;;;;;;16.57;71.86;101156.00;5032889;28;20214;-77
2021/07/23 00:44:10;;;;;;;4.60;4.30;;;;;;;16.53;71.47;101164.94;5032509;28;20238;-76
2021/07/23 00:46:38;;;;;;;4.77;4.37;;;;;;;16.51;72.13;101132.50;5031669;28;20214;-76
2021/07/23 00:49:05;;;;;;;4.63;4.20;;;;;;;16.45;71.50;101144.97;5032627;28;20234;-77
2021/07/23 00:51:32;;;;;;;5.40;5.00;;;;;;;16.43;72.50;101116.94;5032408;28;20206;-76
2021/07/23 00:54:01;;;;;;;5.43;5.00;;;;;;;16.42;72.80;101117.84;5032131;28;20210;-76
2021/07/23 00:56:28;;;;;;;4.93;4.47;;;;;;;16.38;71.82;101148.69;5032564;28;20253;-76
2021/07/23 00:58:56;;;;;;;5.23;4.80;;;;;;;16.36;72.03;101128.59;5032367;28;20201;-76
2021/07/23 01:01:23;;;;;;;5.37;4.70;;;;;;;16.36;72.85;101115.41;5032566;28;20337;-76
2021/07/23 01:03:51;;;;;;;4.57;4.23;;;;;;;16.37;74.06;101053.88;5032016;28;20743;-76
2021/07/23 01:06:17;;;;;;;5.00;4.40;;;;;;;16.23;72.82;101122.84;5032518;28;20256;-76
2021/07/23 01:08:44;;;;;;;4.70;4.30;;;;;;;16.24;73.75;101071.88;5032164;28;20285;-75
2021/07/23 01:11:14;;;;;;;5.20;4.80;;;;;;;16.14;74.44;101065.19;5032259;28;20205;-76
2021/07/23 01:13:41;;;;;;;4.60;4.20;;;;;;;16.05;74.73;101050.53;5031908;28;20217;-76
2021/07/23 01:16:08;;;;;;;5.47;4.97;;;;;;;15.58;74.53;101058.09;5032315;28;20209;-76
2021/07/23 01:18:35;;;;;;;5.23;4.80;;;;;;;15.32;75.48;101025.53;5032423;28;20239;-76
2021/07/23 01:21:02;;;;;;;7.60;4.93;;;;;;;15.41;77.04;100964.75;5032314;28;20347;-75
2021/07/23 01:23:34;;;;;;;5.03;4.30;;;;;;;15.51;76.05;100986.38;5031559;28;20268;-76
2021/07/23 01:26:01;;;;;;;5.50;5.00;;;;;;;15.41;76.04;101001.56;5031937;28;20206;-76
2021/07/23 01:28:29;;;;;;;6.53;5.57;;;;;;;15.52;76.71;100977.59;5023694;28;20237;-76
2021/07/23 01:30:57;;;;;;;5.77;5.23;;;;;;;15.62;76.46;100988.69;5031712;28;20260;-75
2021/07/23 01:33:23;;;;;;;5.37;4.37;;;;;;;15.57;75.63;101007.22;5031228;28;20213;-76
2021/07/23 01:35:50;;;;;;;4.87;4.47;;;;;;;15.57;76.18;100990.59;5031977;28;20209;-75
2021/07/23 01:38:17;;;;;;;5.30;4.80;;;;;;;15.56;75.52;100999.38;5031485;28;20302;-73
2021/07/23 01:40:46;;;;;;;5.37;4.97;;;;;;;15.37;76.20;100978.03;5031819;28;20208;-76
2021/07/23 01:43:15;;;;;;;5.43;4.97;;;;;;;15.25;76.55;100979.28;5031314;28;20298;-76
2021/07/23 01:45:41;;;;;;;6.30;5.70;;;;;;;15.04;77.69;100929.03;5031805;28;20339;-76
2021/07/23 01:48:08;;;;;;;5.87;5.37;;;;;;;15.15;78.52;100901.56;5031868;28;20230;-76
2021/07/23 01:50:34;;;;;;;5.90;5.40;;;;;;;15.13;78.47;100908.63;5031793;28;20208;-76
2021/07/23 01:53:01;;;;;;;5.30;4.80;;;;;;;15.29;78.82;100863.38;5031310;28;20213;-75
2021/07/23 01:55:27;;;;;;;6.20;4.97;;;;;;;15.35;78.40;100912.31;5031255;28;20722;-76
2021/07/23 01:57:55;;;;;;;5.43;4.93;;;;;;;15.36;78.25;100921.94;5033103;28;20227;-76
2021/07/23 02:00:22;;;;;;;5.73;5.33;;;;;;;15.41;79.10;100885.81;5035815;28;20220;-76
2021/07/23 02:02:48;;;;;;;6.87;4.60;;;;;;;15.46;78.19;100896.19;5035520;28;20213;-76
2021/07/23 02:05:14;;;;;;;5.10;4.70;;;;;;;15.27;77.08;100959.91;5035708;28;20259;-76
2021/07/23 02:07:41;;;;;;;5.97;5.57;;;;;;;15.09;77.43;100942.03;5036070;28;20230;-76
2021/07/23 02:10:08;;;;;;;5.73;5.17;;;;;;;14.73;79.10;100894.00;5035158;28;20233;-75
2021/07/23 02:12:35;;;;;;;6.30;5.80;;;;;;;14.92;81.17;100821.59;5035708;28;20218;-75
2021/07/23 02:15:05;;;;;;;8.50;6.47;;;;;;;14.94;79.46;100853.97;5035470;28;20685;-76
2021/07/23 02:17:32;;;;;;;6.07;5.40;;;;;;;14.94;79.58;100863.63;5035427;28;20237;-75
2021/07/23 02:19:58;;;;;;;5.43;5.03;;;;;;;14.87;78.51;100890.09;5035332;28;20293;-76
2021/07/23 02:22:25;;;;;;;5.67;5.10;;;;;;;14.75;80.20;100848.41;5035049;28;20267;-75
2021/07/23 02:24:51;;;;;;;5.97;5.37;;;;;;;14.89;81.33;100808.56;5034853;28;20225;-76
2021/07/23 02:27:17;;;;;;;5.80;5.20;;;;;;;14.91;79.85;100845.34;5029181;28;20230;-75
2021/07/23 02:29:44;;;;;;;5.20;4.77;;;;;;;15.01;79.58;100850.25;5033308;28;20221;-76
2021/07/23 02:32:12;;;;;;;5.23;4.93;;;;;;;15.04;79.37;100867.69;5035069;28;20276;-76
2021/07/23 02:34:38;;;;;;;5.77;5.17;;;;;;;15.00;79.45;100882.69;5034586;28;20233;-76
2021/07/23 02:37:04;;;;;;;5.30;4.87;;;;;;;15.06;78.76;100885.16;5035169;28;20228;-76
2021/07/23 02:39:31;;;;;;;5.33;4.77;;;;;;;15.13;79.14;100866.56;5034764;28;20211;-76
2021/07/23 02:41:57;;;;;;;5.27;4.80;;;;;;;15.14;80.10;100839.34;5034767;28;20213;-76
2021/07/23 02:44:24;;;;;;;5.27;4.77;;;;;;;15.16;78.99;100874.34;5035062;28;20214;-76
2021/07/23 02:46:50;;;;;;;5.43;4.93;;;;;;;15.03;77.97;100919.41;5034844;28;20237;-76
2021/07/23 02:49:18;;;;;;;7.00;4.73;;;;;;;15.01;78.10;100912.50;5034744;28;20233;-75
2021/07/23 02:51:44;;;;;;;5.10;4.80;;;;;;;15.00;78.50;100898.47;5034981;28;20216;-76
2021/07/23 02:54:11;;;;;;;4.87;4.47;;;;;;;15.00;78.36;100908.13;5034262;28;20267;-75
2021/07/23 02:56:37;;;;;;;5.00;4.60;;;;;;;15.04;78.59;100909.75;5034654;28;20260;-76
2021/07/23 02:59:03;;;;;;;4.73;4.43;;;;;;;15.07;79.46;100859.72;5026480;28;20200;-76
2021/07/23 03:01:30;;;;;;;4.93;4.30;;;;;;;14.98;78.38;100904.69;5034617;28;20198;-75
2021/07/23 03:03:56;;;;;;;4.67;4.27;;;;;;;14.88;78.36;100896.22;5034105;28;20205;-76
2021/07/23 03:06:24;;;;;;;5.50;5.10;;;;;;;14.87;78.57;100895.34;5034721;28;20213;-76
2021/07/23 03:08:51;;;;;;;5.47;4.87;;;;;;;14.89;78.60;100893.53;5033250;28;20284;-76
2021/07/23 03:11:17;;;;;;;4.67;4.27;;;;;;;14.91;78.58;100904.03;5034561;28;20266;-76
2021/07/23 03:13:43;;;;;;;4.73;4.13;;;;;;;14.94;78.63;100889.91;5034204;28;20213;-75
2021/07/23 03:16:14;;;;;;;5.20;4.63;;;;;;;14.91;78.89;100895.28;5034433;28;20204;-75
2021/07/23 03:18:40;;;;;;;5.00;4.60;;;;;;;14.98;80.66;100825.81;5034261;28;20964;-76
2021/07/23 03:21:07;;;;;;;4.73;4.27;;;;;;;15.03;80.82;100818.66;5034462;28;20271;-76
2021/07/23 03:23:34;;;;;;;4.90;4.50;;;;;;;15.02;79.30;100862.47;5034159;28;20563;-76
2021/07/23 03:26:05;;;;;;;5.07;4.77;;;;;;;14.98;78.90;100889.75;5034218;28;20687;-76
2021/07/23 03:28:31;;;;;;;4.97;4.57;;;;;;;14.89;79.25;100874.28;5033938;28;20693;-76
2021/07/23 03:30:57;;;;;;;5.67;5.20;;;;;;;14.96;81.17;100811.88;5034018;28;20206;-76
2021/07/23 03:33:24;;;;;;;6.73;5.23;;;;;;;15.04;81.41;100780.94;5033780;28;20205;-76
2021/07/23 03:35:50;;;;;;;5.10;4.70;;;;;;;15.07;80.20;100829.03;5034961;28;20260;-76
2021/07/23 03:38:17;;;;;;;5.63;5.13;;;;;;;15.08;80.25;100848.28;5035733;28;20255;-75
2021/07/23 03:40:45;;;;;;;6.20;4.87;;;;;;;15.09;79.48;100857.91;5037787;28;20213;-76
2021/07/23 03:43:11;;;;;;;5.67;4.70;;;;;;;15.06;79.83;100850.97;5033400;28;20214;-75
2021/07/23 03:45:37;;;;;;;5.43;4.93;;;;;;;15.05;80.56;100830.84;5034157;28;20210;-76
2021/07/23 03:48:05;;;;;;;4.97;4.57;;;;;;;15.09;79.84;100848.25;5033764;28;20596;-76
2021/07/23 03:50:31;;;;;;;6.17;4.37;;;;;;;15.08;79.45;100848.28;5033924;28;20225;-76
2021/07/23 03:52:57;;;;;;;5.03;4.50;;;;;;;14.99;79.24;100896.75;5033435;28;20213;-76
2021/07/23 03:55:24;;;;;;;5.57;4.83;;;;;;;15.02;79.58;100866.88;5033550;28;20205;-77
2021/07/23 03:57:52;;;;;;;5.27;4.77;;;;;;;14.95;79.87;100844.34;5033369;28;20230;-76
2021/07/23 04:00:19;;;;;;;5.03;4.57;;;;;;;14.96;80.61;100825.84;5033654;28;20205;-76
2021/07/23 04:02:45;;;;;;;5.60;5.07;;;;;;;14.93;79.77;100868.03;5033264;28;20209;-75
2021/07/23 04:05:12;;;;;;;5.20;4.73;;;;;;;14.90;79.91;100847.06;5033578;28;20210;-76
2021/07/23 04:07:39;;;;;;;5.07;4.60;;;;;;;14.86;79.38;100872.59;5033410;28;20225;-75
2021/07/23 04:10:05;;;;;;;6.77;4.40;;;;;;;14.75;79.62;100863.34;5032978;28;20233;-76
2021/07/23 04:12:32;;;;;;;4.90;4.50;;;;;;;14.72;80.28;100840.59;5033207;28;20221;-75
2021/07/23 04:15:01;;;;;;;4.80;4.30;;;;;;;14.81;81.76;100786.94;5033478;28;20697;-75
2021/07/23 04:17:27;;;;;;;5.23;4.80;;;;;;;14.71;80.66;100833.66;5033318;28;20312;-75
2021/07/23 04:19:54;;;;;;;4.77;4.47;;;;;;;14.78;82.39;100776.50;5034222;28;20216;-76
2021/07/23 04:22:20;;;;;;;4.57;4.27;;;;;;;14.92;83.24;100739.28;5032861;28;20212;-76
2021/07/23 04:24:46;;;;;;;4.33;3.93;;;;;;;14.98;81.91;100784.59;5032721;28;20221;-76
2021/07/23 04:27:13;;;;;;;4.63;4.20;;;;;;;15.07;82.09;100799.25;5027615;28;20238;-76
2021/07/23 04:29:40;;;;;;;4.97;4.57;;;;;;;15.00;80.47;100834.50;5030495;28;20234;-76
2021/07/23 04:32:08;;;;;;;5.27;4.40;;;;;;;15.03;81.47;100809.00;5032785;28;20213;-76
2021/07/23 04:34:35;;;;;;;4.97;4.10;;;;;;;14.89;79.69;100880.41;5032173;28;20263;-76
2021/07/23 04:37:02;;;;;;;4.50;4.10;;;;;;;14.82;80.42;100863.06;5032675;28;20309;-76
2021/07/23 04:39:28;;;;;;;6.53;4.37;;;;;;;14.75;80.39;100868.59;5032742;28;20661;-76
2021/07/23 04:41:55;;;;;;;4.70;4.30;;;;;;;14.91;82.28;100791.00;5032617;28;20212;-76
2021/07/23 04:44:21;;;;;;;4.30;3.90;;;;;;;15.02;82.09;100788.00;5032767;28;20217;-76
2021/07/23 04:46:48;;;;;;;5.53;4.80;;;;;;;14.59;80.08;100876.03;5032552;28;20221;-76
2021/07/23 04:49:15;;;;;;;4.53;4.00;;;;;;;14.71;82.48;100788.97;5032525;28;20216;-76
2021/07/23 04:51:42;;;;;;;4.83;4.43;;;;;;;14.57;80.82;100831.44;5032470;28;20668;-75
2021/07/23 04:54:08;;;;;;;4.97;4.57;;;;;;;14.57;82.78;100791.13;5032098;28;20259;-76
2021/07/23 04:56:35;;;;;;;4.97;4.47;;;;;;;14.66;81.88;100794.34;5032505;28;20209;-75
2021/07/23 04:59:01;;;;;;;5.47;4.80;;;;;;;14.84;82.33;100799.97;5024284;28;20211;-75
2021/07/23 05:01:27;;;;;;;4.60;4.20;;;;;;;14.93;81.76;100790.94;5032294;28;20200;-75
2021/07/23 05:03:54;;;;;;;5.73;4.43;;;;;;;14.69;79.43;100881.00;5031893;28;20210;-76
2021/07/23 05:06:22;;;;;;;6.80;5.07;;;;;;;14.73;82.17;100830.94;5032559;28;20254;-76
2021/07/23 05:08:48;;;;;;;4.53;4.13;;;;;;;14.80;81.67;100804.44;5032346;28;20278;-75
2021/07/23 05:11:16;;;;;;;6.80;4.53;;;;;;;14.80;81.08;100848.28;5032030;28;20229;-75
2021/07/23 05:13:43;;;;;;;4.60;4.20;;;;;;;14.92;81.59;100826.88;5031960;28;20212;-75
2021/07/23 05:16:10;;;;;;;5.00;4.50;;;;;;;15.00;80.45;100853.78;5031495;28;20210;-75
2021/07/23 05:18:39;;;;;;;6.53;5.27;;;;;;;14.86;78.63;100913.78;5030742;28;20220;-75
2021/07/23 05:21:07;;;;;;;5.53;4.93;;;;;;;14.52;80.17;100888.44;5029340;28;20279;-75
2021/07/23 05:23:35;;;;;;;6.07;5.20;;;;;;;14.43;80.78;100860.69;5030857;28;20205;-75
2021/07/23 05:26:02;;;;;;;6.50;4.90;;;;;;;14.28;81.39;100827.81;5030339;28;20577;-76
2021/07/23 05:28:28;;;;;;;6.03;5.63;;;;;;;14.24;81.45;100823.56;5030423;28;20275;-75
2021/07/23 05:30:55;;;;;;;5.77;5.37;;;;;;;14.32;81.27;100835.63;5030422;28;20225;-75
2021/07/23 05:33:21;;;;;;;5.90;5.37;;;;;;;14.33;81.51;100818.94;5029713;28;20206;-75
2021/07/23 05:35:48;;;;;;;11.30;5.50;;;;;;;14.36;81.22;100827.59;5030977;28;20254;-75
2021/07/23 05:38:15;;;;;;;5.73;5.33;;;;;;;14.43;82.29;100802.03;5030768;28;20229;-75
2021/07/23 05:40:42;;;;;;;7.10;6.30;;;;;;;14.21;82.01;100800.03;5029988;28;20197;-74
2021/07/23 05:43:09;;;;;;;6.27;5.67;;;;;;;14.30;82.88;100777.88;5030664;28;20198;-75
2021/07/23 05:45:37;;;;;;;7.13;6.00;;;;;;;14.28;83.34;100761.31;5031026;28;21705;-75
2021/07/23 05:48:04;;;;;;;6.27;5.67;;;;;;;14.38;82.77;100781.16;5036226;28;20298;-75
2021/07/23 05:50:31;;;;;;;6.37;5.77;;;;;;;14.48;82.90;100766.84;5039958;28;20221;-75
2021/07/23 05:52:57;;;;;;;6.87;6.23;;;;;;;14.34;82.81;100776.91;5039420;28;20257;-75
2021/07/23 05:55:23;;;;;;;8.13;5.90;;;;;;;14.38;82.80;100775.03;5040983;28;20227;-75
2021/07/23 05:57:51;;;;;;;6.67;6.00;;;;;;;14.48;83.67;100747.59;5039122;28;20290;-76
2021/07/23 06:00:18;;;;;;;6.23;5.73;;;;;;;14.54;81.53;100823.59;5040120;28;20293;-76
2021/07/23 06:02:44;;;;;;;7.63;5.40;;;;;;;14.72;82.22;100813.47;5038235;28;20203;-76
2021/07/23 06:05:11;;;;;;;5.40;4.90;;;;;;;14.85;81.33;100849.00;5031092;28;20198;-75
2021/07/23 06:07:38;;;;;;;5.87;5.37;;;;;;;14.81;80.02;100897.31;5031230;28;20233;-75
2021/07/23 06:10:05;;;;;;;5.80;5.30;;;;;;;14.75;80.42;100890.47;5036658;28;20255;-76
2021/07/23 06:12:32;;;;;;;8.50;5.87;;;;;;;14.65;80.01;100886.38;5039943;28;20266;-77
2021/07/23 06:14:59;;;;;;;7.07;5.00;;;;;;;14.88;81.08;100847.16;5040928;28;20263;-76
2021/07/23 06:17:26;;;;;;;5.90;5.33;;;;;;;15.03;79.92;100882.63;5036811;28;20228;-76
2021/07/23 06:19:52;;;;;;;6.27;5.10;;;;;;;15.12;80.19;100870.94;5039953;28;20200;-76
2021/07/23 06:22:19;;;;;;;7.53;5.00;;;;;;;15.26;79.50;100905.59;5032821;28;20214;-76
2021/07/23 06:24:46;;;;;;;7.27;6.57;;;;;;;15.40;79.24;100930.56;5030642;28;20671;-76
2021/07/23 06:27:12;;;;;;;7.40;6.70;;;;;;;15.48;78.89;100934.72;5030173;28;20218;-76
2021/07/23 06:29:38;;;;;;;5.90;5.20;;;;;;;15.49;78.04;100956.63;5030436;28;20206;-77
2021/07/23 06:32:07;;;;;;;6.53;5.43;;;;;;;15.57;79.19;100936.19;5029348;28;20218;-76
2021/07/23 06:34:34;;;;;;;5.07;4.57;;;;;;;15.69;78.86;100924.41;5029737;28;20210;-76
2021/07/23 06:37:02;;;;;;;3.63;3.43;;;;;;;15.80;75.71;101050.47;5031322;28;20228;-77
2021/07/23 06:39:29;;;;;;;6.00;4.10;;;;;;;15.89;75.92;101055.41;5030980;28;20236;-77
2021/07/23 06:41:56;;;;;;;4.70;4.13;;;;;;;15.96;75.77;101064.00;5030951;28;20202;-76
2021/07/23 06:44:25;;;;;;;4.67;4.37;;;;;;;16.04;76.36;101022.50;5033456;28;20214;-76
2021/07/23 06:46:52;;;;;;;8.50;4.73;;;;;;;16.12;74.24;101107.38;5034721;28;20746;-76
2021/07/23 06:49:19;;;;;;;4.57;4.17;;;;;;;16.15;73.89;101135.38;5035097;28;20206;-76
2021/07/23 06:51:46;;;;;;;4.97;3.90;;;;;;;16.16;75.24;101089.72;5034957;28;20236;-76
2021/07/23 06:54:13;;;;;;;5.00;4.57;;;;;;;16.24;74.32;101116.66;5034637;28;20260;-77
2021/07/23 06:56:40;;;;;;;4.30;4.00;;;;;;;16.28;74.03;101132.31;5035286;28;20210;-76
2021/07/23 06:59:06;;;;;;;4.90;4.30;;;;;;;16.31;74.38;101119.97;5027714;28;20208;-76
2021/07/23 07:01:33;;;;;;;4.47;4.00;;;;;;;16.35;73.79;101134.75;5037299;28;20206;-76
2021/07/23 07:03:59;;;;;;;4.57;4.10;;;;;;;16.39;73.54;101141.66;5037331;28;20209;-77
2021/07/23 07:06:27;;;;;;;4.53;4.00;;;;;;;16.41;73.50;101150.38;5034491;28;20206;-77
2021/07/23 07:08:53;;;;;;;5.93;3.93;;;;;;;16.48;73.30;101155.41;5034502;28;20285;-77
2021/07/23 07:11:20;;;;;;;5.27;4.77;;;;;;;16.51;72.48;101178.19;5033930;28;20233;-76
2021/07/23 07:13:46;;;;;;;4.97;4.00;;;;;;;16.58;72.91;101178.84;5033858;28;20276;-77
2021/07/23 07:16:12;;;;;;;4.30;3.90;;;;;;;16.63;73.10;101158.44;5034560;28;20244;-77
2021/07/23 07:18:41;;;;;;;4.17;3.77;;;;;;;16.68;72.88;101174.97;5034225;28;20790;-77
2021/07/23 07:21:07;;;;;;;4.03;3.73;;;;;;;16.72;72.84;101152.88;5034180;28;20226;-77
2021/07/23 07:23:35;;;;;;;4.43;4.13;;;;;;;16.81;72.68;101176.34;5033975;28;20265;-76
2021/07/23 07:26:01;;;;;;;4.77;4.30;;;;;;;16.85;71.42;101209.63;5033905;28;20256;-76
2021/07/23 07:28:28;;;;;;;4.37;3.97;;;;;;;16.90;71.73;101209.44;5025707;28;20222;-77
2021/07/23 07:30:54;;;;;;;6.67;4.60;;;;;;;16.64;69.78;101292.00;5033491;28;20296;-76
2021/07/23 07:33:21;;;;;;;5.30;4.50;;;;;;;16.52;71.09;101251.03;5033514;28;20264;-76
2021/07/23 07:35:47;;;;;;;4.40;3.97;;;;;;;16.70;74.66;101090.59;5033586;28;20202;-77
2021/07/23 07:38:14;;;;;;;4.97;4.47;;;;;;;16.71;72.00;101180.16;5033390;28;20222;-77
2021/07/23 07:40:41;;;;;;;3.50;3.20;;;;;;;16.86;71.48;101207.84;5032988;28;20248;-77
2021/07/23 07:43:08;;;;;;;4.67;3.83;;;;;;;16.93;71.00;101214.63;5033121;28;20201;-76
2021/07/23 07:45:36;;;;;;;4.03;3.43;;;;;;;17.02;70.92;101231.91;5032083;28;20214;-76
2021/07/23 07:48:03;;;;;;;3.77;3.47;;;;;;;16.97;70.26;101266.38;5033515;28;20234;-76
2021/07/23 07:50:29;;;;;;;3.90;3.60;;;;;;;16.93;71.06;101238.38;5033678;28;20233;-76
2021/07/23 07:52:55;;;;;;;4.73;4.23;;;;;;;17.07;69.44;101295.97;5033998;28;20210;-76
2021/07/23 07:55:22;;;;;;;4.90;3.33;;;;;;;17.07;69.53;101294.16;5032751;28;20205;-76
2021/07/23 07:57:50;;;;;;;4.40;3.30;;;;;;;17.25;70.47;101250.50;5033642;28;20650;-76
2021/07/23 08:00:16;;;;;;;3.80;3.27;;;;;;;17.37;69.78;101269.47;5033541;28;20202;-76
2021/07/23 08:02:46;;;;;;;3.80;3.33;;;;;;;17.44;69.16;101300.00;5033326;28;20215;-76
2021/07/23 08:05:14;;;;;;;4.60;3.77;;;;;;;17.38;67.10;101368.84;5033506;28;20297;-76
2021/07/23 08:07:40;;;;;;;3.87;2.93;;;;;;;17.43;68.63;101324.69;5033343;28;20225;-76
2021/07/23 08:10:10;;;;;;;5.17;3.10;;;;;;;17.54;67.41;101358.63;5033224;28;20210;-76
2021/07/23 08:12:36;;;;;;;6.33;3.27;;;;;;;17.55;67.03;101378.84;5033147;28;20215;-75
2021/07/23 08:15:05;;;;;;;5.30;3.10;;;;;;;17.52;68.65;101305.91;5033508;28;20204;-76
2021/07/23 08:17:31;;;;;;;3.27;2.97;;;;;;;17.66;67.78;101319.50;5033257;28;20264;-76
2021/07/23 08:19:58;;;;;;;3.53;3.23;;;;;;;17.77;67.67;101328.81;5033250;28;20202;-76
2021/07/23 08:22:25;;;;;;;3.73;3.43;;;;;;;17.75;68.17;101322.72;5032708;28;20203;-76
2021/07/23 08:24:52;;;;;;;59.73;15.00;;;;;;;17.78;68.80;101319.97;5033253;28;20214;-76
2021/07/23 08:27:21;;;;;;;10.57;5.60;;;;;;;17.87;69.79;101232.53;5033237;28;20230;-76
2021/07/23 08:29:47;;;;;;;5.60;3.50;;;;;;;17.81;64.96;101414.94;5033115;28;20203;-76
2021/07/23 08:32:16;;;;;;;4.03;3.60;;;;;;;17.79;66.25;101422.06;5032186;28;20288;-76
2021/07/23 08:34:42;;;;;;;3.63;3.30;;;;;;;17.82;66.03;101406.13;5033329;28;20214;-76
2021/07/23 08:37:08;;;;;;;3.73;2.83;;;;;;;17.91;65.92;101408.47;5033064;28;20245;-76
2021/07/23 08:39:35;;;;;;;3.73;2.90;;;;;;;18.03;65.50;101429.19;5033030;28;20398;-74
2021/07/23 08:42:22;;;;;;;3.67;3.03;;;;;;;18.10;63.59;101490.63;5032622;28;20258;-76
2021/07/23 08:44:49;;;;;;;3.47;3.17;;;;;;;18.03;64.32;101487.31;5032612;28;20210;-76
2021/07/23 08:47:17;;;;;;;3.13;2.60;;;;;;;18.18;65.36;101419.88;5032571;28;20239;-76
2021/07/23 08:49:43;;;;;;;4.13;2.80;;;;;;;18.34;64.67;101449.28;5033249;28;20207;-77
2021/07/23 08:52:10;;;;;;;3.30;3.00;;;;;;;18.36;64.04;101484.44;5032483;28;20757;-76
2021/07/23 08:54:36;;;;;;;3.20;3.00;;;;;;;18.44;63.93;101468.31;5032385;28;20234;-76
2021/07/23 08:57:03;;;;;;;3.53;3.23;;;;;;;18.55;63.14;101489.09;5036144;28;20723;-76
2021/07/23 08:59:31;;;;;;;4.10;3.10;;;;;;;18.61;63.31;101502.97;5033202;28;20266;-76
2021/07/23 09:01:58;;;;;;;5.13;3.97;;;;;;;18.68;63.03;101503.59;5030931;28;20912;-76
2021/07/23 09:04:30;;;;;;;8.10;3.50;;;;;;;18.72;62.68;101522.88;5032845;28;20203;-76
2021/07/23 09:07:29;;;;;;;4.80;3.77;;;;;;;18.75;62.73;101514.81;5049076;28;20219;-76
2021/07/23 09:09:57;;;;;;;3.73;3.37;;;;;;;18.50;62.55;101523.63;5039906;28;20214;-76
2021/07/23 09:12:23;;;;;;;3.47;3.03;;;;;;;18.59;63.29;101488.94;5032105;28;20233;-75
2021/07/23 09:14:50;;;;;;;3.90;3.53;;;;;;;18.36;62.25;101541.75;5032271;28;20211;-77
2021/07/23 09:17:17;;;;;;;3.43;3.23;;;;;;;18.21;62.19;101532.53;5032203;28;20262;-76
2021/07/23 09:20:02;;;;;;;4.30;3.90;;;;;;;18.18;62.03;101530.00;5032203;28;20210;-76
2021/07/23 09:22:42;;;;;;;4.10;3.80;;;;;;;18.19;62.62;101516.72;5032043;28;20281;-74
2021/07/23 09:25:10;;;;;;;4.57;4.17;;;;;;;18.19;63.02;101484.16;5031879;28;20207;-76
2021/07/23 09:27:37;;;;;;;4.40;4.00;;;;;;;18.25;61.71;101535.06;5031491;28;20285;-76
2021/07/23 09:30:06;;;;;;;6.13;4.23;;;;;;;18.17;63.46;101486.00;5033638;28;20207;-76
2021/07/23 09:32:33;;;;;;;4.70;4.30;;;;;;;18.24;64.15;101448.72;5031037;28;20291;-76
2021/07/23 09:35:10;;;;;;;4.80;3.50;;;;;;;18.48;64.37;101398.56;5031483;28;20208;-76
2021/07/23 09:37:53;;;;;;;4.40;4.10;;;;;;;18.68;61.09;101522.13;5031889;28;20225;-76
2021/07/23 09:40:20;;;;;;;4.40;4.10;;;;;;;18.82;60.95;101546.31;4338645;28;10000799;-76
2021/07/23 09:42:56;;;;;;;5.20;4.70;;;;;;;18.54;59.91;101609.00;5027859;28;20236;-76
2021/07/23 09:45:27;;;;;;;4.83;4.43;;;;;;;18.70;61.55;101528.22;5028614;28;20231;-81
2021/07/23 09:47:54;;;;;;;4.47;4.17;;;;;;;18.73;59.82;101585.44;5028181;28;20231;-76
2021/07/23 09:50:22;;;;;;;4.10;3.80;;;;;;;18.84;60.88;101564.78;5028426;28;20936;-76
2021/07/23 09:52:50;;;;;;;4.80;4.30;;;;;;;18.96;60.39;101584.66;5028212;28;20228;-76
2021/07/23 09:55:16;;;;;;;4.47;4.17;;;;;;;18.87;59.50;101606.16;5027487;28;20216;-76
2021/07/23 09:57:47;;;;;;;5.37;4.97;;;;;;;18.60;59.36;101622.88;5027860;28;20288;-76
2021/07/23 10:00:17;;;;;;;4.60;4.30;;;;;;;18.76;60.61;101564.16;5028360;28;20298;-76
2021/07/23 10:02:44;;;;;;;4.40;4.10;;;;;;;18.90;59.83;101584.88;5028316;28;20209;-75
2021/07/23 10:05:14;;;;;;;3.97;3.60;;;;;;;19.03;58.80;101629.38;5028671;28;20231;-75
2021/07/23 10:07:48;;;;;;;4.50;4.10;;;;;;;19.00;59.48;101615.38;5028549;28;20228;-76
2021/07/23 10:10:18;;;;;;;3.67;3.27;;;;;;;19.15;60.88;101532.78;5028137;28;20212;-76
2021/07/23 10:12:46;;;;;;;3.60;3.30;;;;;;;19.22;59.52;101603.09;5027764;28;20326;-76
2021/07/23 10:15:14;;;;;;;3.90;3.60;;;;;;;19.23;57.40;101659.59;5028410;28;20216;-76
2021/07/23 10:17:41;;;;;;;3.97;3.67;;;;;;;19.15;58.60;101659.84;5028369;28;20246;-74
2021/07/23 10:20:09;;;;;;;5.63;4.03;;;;;;;19.12;57.90;101653.78;5032632;28;20205;-76
2021/07/23 10:22:36;;;;;;;3.47;3.07;;;;;;;19.38;60.47;101547.78;5032011;28;20199;-76
2021/07/23 10:25:05;;;;;;;3.63;3.23;;;;;;;19.63;63.12;101436.47;5031927;28;20210;-76
2021/07/23 10:27:31;;;;;;;2.87;2.63;;;;;;;19.70;57.35;101643.75;5024553;28;20230;-76
2021/07/23 10:29:58;;;;;;;3.97;3.53;;;;;;;19.57;57.51;101682.19;5024453;28;20197;-76
2021/07/23 10:32:30;;;;;;;4.93;3.00;;;;;;;19.61;58.23;101636.13;5032030;28;20223;-76
2021/07/23 10:34:58;;;;;;;2.77;2.53;;;;;;;19.50;57.96;101659.50;5031945;28;20212;-77
2021/07/23 10:37:50;;;;;;;3.30;3.07;;;;;;;19.56;57.10;101657.50;5031861;28;20260;-76
2021/07/23 10:40:20;;;;;;;3.13;2.93;;;;;;;19.67;57.89;101621.78;5022381;28;20280;-76
2021/07/23 10:42:47;;;;;;;3.07;2.83;;;;;;;19.86;58.04;101611.38;5012147;28;20223;-76
2021/07/23 10:45:15;;;;;;;2.80;2.50;;;;;;;19.93;57.91;101619.00;5011905;28;20219;-76
2021/07/23 10:47:44;;;;;;;2.80;2.60;;;;;;;19.87;54.89;101719.09;5011357;28;20241;-75
2021/07/23 10:50:16;;;;;;;3.17;2.70;;;;;;;19.74;55.96;101729.28;5011408;28;20211;-76
2021/07/23 10:52:42;;;;;;;3.40;2.87;;;;;;;19.86;55.11;101738.56;5011878;28;20237;-76
2021/07/23 10:55:23;;;;;;;2.77;2.50;;;;;;;19.99;56.01;101710.69;5011382;28;20220;-76
2021/07/23 10:58:33;;;;;;;2.57;2.37;;;;;;;19.93;54.95;101740.06;5020035;28;20233;-76
2021/07/23 11:01:01;;;;;;;2.43;2.23;;;;;;;20.11;58.82;101588.25;5023826;28;20211;-76
2021/07/23 11:04:01;;;;;;;5.60;2.23;;;;;;;20.37;57.23;101621.66;5031386;28;20210;-76
2021/07/23 11:06:33;;;;;;;2.10;1.80;;;;;;;20.53;55.69;101677.59;5031924;28;20204;-76
2021/07/23 11:09:03;;;;;;;3.73;2.10;;;;;;;20.57;55.09;101713.72;5031992;28;20581;-76
2021/07/23 11:11:31;;;;;;;1.73;1.63;;;;;;;20.82;55.10;101713.59;5031167;28;20721;-76
2021/07/23 11:14:15;;;;;;;1.90;1.80;;;;;;;21.00;55.29;101698.69;5029307;28;20198;-77
2021/07/23 11:16:41;;;;;;;2.57;1.80;;;;;;;20.54;52.89;101853.56;5031295;28;20216;-74
2021/07/23 11:19:08;;;;;;;2.23;1.80;;;;;;;20.67;56.38;101673.56;5030137;28;20275;-75
2021/07/23 11:21:36;;;;;;;2.10;1.93;;;;;;;21.01;56.79;101618.13;5030367;28;20206;-76
2021/07/23 11:24:08;;;;;;;1.87;1.77;;;;;;;21.06;52.54;101801.09;5030137;28;20630;-76
2021/07/23 11:26:35;;;;;;;2.30;2.10;;;;;;;21.13;51.55;101855.69;5030074;28;20209;-76